Time;durP1;ratioP1;P1;durP2;ratioP2;P2;SDS_P1;SDS_P2;PMS_P1;PMS_P2;Temp;Humidity;BMP_temperature;BMP_pressure;BME280_temperature;BME280_humidity;BME280_pressure;Samples;Min_cycle;Max_cycle;Signal;HPM_P1;HPM_P2
2022/05/14 00:00:12;;;;;;;11.05;3.75;;;13.40;99.90;;;;;;5071126;28;20048;-68
2022/05/14 00:02:37;;;;;;;7.88;3.75;;;13.30;99.90;;;;;;5071660;28;20076;-68
2022/05/14 00:05:05;;;;;;;13.07;4.32;;;13.30;99.90;;;;;;5071722;28;20064;-67
2022/05/14 00:07:30;;;;;;;8.57;4.25;;;13.30;99.90;;;;;;5077273;28;20645;-67
2022/05/14 00:09:56;;;;;;;12.80;4.22;;;13.30;99.90;;;;;;5102862;28;20123;-67
2022/05/14 00:15:06;;;;;;;17.55;4.40;;;13.20;99.90;;;;;;5110734;28;20407;-67
2022/05/14 00:17:32;;;;;;;8.90;3.67;;;13.20;99.90;;;;;;5111472;28;20047;-66
2022/05/14 00:19:57;;;;;;;7.15;3.53;;;13.30;99.90;;;;;;5111732;28;20046;-68
2022/05/14 00:22:23;;;;;;;17.77;4.18;;;13.20;99.90;;;;;;5111934;28;20039;-66
2022/05/14 00:24:49;;;;;;;11.57;3.78;;;13.20;99.90;;;;;;5111731;28;20578;-67
2022/05/14 00:27:14;;;;;;;10.40;3.58;;;13.30;99.90;;;;;;5111586;28;20031;-67
2022/05/14 00:29:41;;;;;;;11.77;3.60;;;13.30;99.90;;;;;;5110797;28;20112;-68
2022/05/14 00:32:07;;;;;;;10.98;3.97;;;13.20;99.90;;;;;;5110428;28;20044;-67
2022/05/14 00:34:32;;;;;;;11.32;4.07;;;13.10;99.90;;;;;;5111870;28;20071;-67
2022/05/14 00:37:00;;;;;;;8.32;3.30;;;13.10;99.90;;;;;;5111556;28;20116;-68
2022/05/14 00:39:26;;;;;;;12.68;3.58;;;13.10;99.90;;;;;;5109979;28;20051;-67
2022/05/14 00:41:52;;;;;;;15.18;3.50;;;13.10;99.90;;;;;;5111083;28;20042;-67
2022/05/14 00:44:18;;;;;;;12.05;4.07;;;13.20;99.90;;;;;;5110036;28;20051;-67
2022/05/14 00:47:00;;;;;;;16.67;4.80;;;13.20;99.90;;;;;;5110044;28;20050;-67
2022/05/14 00:49:28;;;;;;;11.38;3.83;;;13.20;99.90;;;;;;5111278;28;20035;-68
2022/05/14 00:51:54;;;;;;;13.82;4.57;;;13.20;99.90;;;;;;5110170;28;20183;-67
2022/05/14 00:54:28;;;;;;;8.85;3.20;;;13.10;99.90;;;;;;5109452;28;20040;-67
2022/05/14 00:57:00;;;;;;;10.93;3.90;;;13.10;99.90;;;;;;5109497;28;20039;-67
2022/05/14 00:59:26;;;;;;;8.68;3.72;;;13.10;99.90;;;;;;5109840;28;20039;-67
2022/05/14 01:01:52;;;;;;;9.10;3.47;;;13.10;99.90;;;;;;5111107;28;20403;-67
2022/05/14 01:04:20;;;;;;;9.98;3.38;;;13.10;99.90;;;;;;5110921;28;20036;-68
2022/05/14 01:07:07;;;;;;;16.75;4.80;;;13.10;99.90;;;;;;5109746;28;20039;-67
2022/05/14 01:09:35;;;;;;;9.93;3.70;;;13.10;99.90;;;;;;5109679;28;20092;-68
2022/05/14 01:12:03;;;;;;;7.78;3.78;;;13.10;99.90;;;;;;5092782;28;20059;-67
2022/05/14 01:14:28;;;;;;;13.63;3.72;;;13.10;99.90;;;;;;5110130;28;20440;-67
2022/05/14 01:16:54;;;;;;;14.07;3.85;;;13.20;99.90;;;;;;5111277;28;20044;-67
2022/05/14 01:19:19;;;;;;;10.35;3.22;;;13.20;99.90;;;;;;5110567;28;20115;-67
2022/05/14 01:21:57;;;;;;;14.63;3.47;;;13.10;99.90;;;;;;5111096;28;20104;-67
2022/05/14 01:27:42;;;;;;;13.13;3.40;;;13.20;99.90;;;;;;5111272;28;20090;-67
2022/05/14 01:30:08;;;;;;;10.45;3.50;;;13.20;99.90;;;;;;5114845;28;20075;-67
2022/05/14 01:32:34;;;;;;;12.20;4.05;;;13.10;99.90;;;;;;5115549;28;20688;-67
2022/05/14 01:35:00;;;;;;;10.25;3.47;;;13.20;99.90;;;;;;5115443;28;20146;-67
2022/05/14 01:37:25;;;;;;;15.18;4.18;;;13.20;99.90;;;;;;5114950;28;20050;-67
2022/05/14 01:39:52;;;;;;;11.68;3.65;;;13.10;99.90;;;;;;5114721;28;20075;-68
2022/05/14 01:42:18;;;;;;;10.38;3.38;;;13.10;99.90;;;;;;5113641;28;20090;-68
2022/05/14 01:44:44;;;;;;;13.15;4.07;;;13.10;99.90;;;;;;5113568;28;20445;-68
2022/05/14 01:47:10;;;;;;;12.52;4.20;;;13.10;99.90;;;;;;5113759;28;20044;-67
2022/05/14 01:49:36;;;;;;;11.60;3.63;;;13.10;99.90;;;;;;5113696;27;20035;-68
2022/05/14 01:52:02;;;;;;;13.55;4.18;;;13.00;99.90;;;;;;5114847;28;20051;-67
2022/05/14 01:54:28;;;;;;;17.40;3.80;;;13.00;99.90;;;;;;5114928;28;20033;-67
2022/05/14 01:56:53;;;;;;;10.52;3.67;;;13.00;99.90;;;;;;5114631;28;20084;-68
2022/05/14 01:59:19;;;;;;;13.38;3.70;;;13.10;99.90;;;;;;5114202;28;20063;-68
2022/05/14 02:01:45;;;;;;;8.98;3.90;;;13.10;99.90;;;;;;5114782;28;20445;-67
2022/05/14 02:04:14;;;;;;;18.10;3.58;;;13.10;99.90;;;;;;5114547;28;20487;-67
2022/05/14 02:06:42;;;;;;;10.68;3.33;;;13.10;99.90;;;;;;5114583;28;20078;-67
2022/05/14 02:09:09;;;;;;;9.15;3.60;;;13.10;99.90;;;;;;5112703;28;20050;-67
2022/05/14 02:11:37;;;;;;;10.75;3.78;;;13.10;99.90;;;;;;5113066;28;20526;-67
2022/05/14 02:14:03;;;;;;;13.88;3.40;;;13.10;99.90;;;;;;5114142;28;20039;-67
2022/05/14 02:16:29;;;;;;;16.70;3.65;;;13.10;99.90;;;;;;5114315;28;20066;-66
2022/05/14 02:18:54;;;;;;;10.65;3.40;;;13.10;99.90;;;;;;5113477;28;20039;-68
2022/05/14 02:21:24;;;;;;;14.00;4.38;;;13.10;99.90;;;;;;5114215;28;20080;-67
2022/05/14 02:23:51;;;;;;;10.65;3.65;;;13.00;99.90;;;;;;5113353;28;20047;-67
2022/05/14 02:26:17;;;;;;;18.08;4.22;;;13.00;99.90;;;;;;5114331;28;20040;-67
2022/05/14 02:28:42;;;;;;;11.77;3.97;;;13.00;99.90;;;;;;5113672;28;20114;-67
2022/05/14 02:31:08;;;;;;;9.23;3.95;;;13.00;99.90;;;;;;5113013;28;20115;-67
2022/05/14 02:33:35;;;;;;;15.10;4.30;;;13.00;99.90;;;;;;5113142;28;20069;-67
2022/05/14 02:36:00;;;;;;;19.65;4.68;;;13.00;99.90;;;;;;5114086;28;20040;-67
2022/05/14 02:38:30;;;;;;;11.00;4.03;;;13.00;99.90;;;;;;5113380;28;20039;-67
2022/05/14 02:40:57;;;;;;;13.10;3.78;;;13.00;99.90;;;;;;5112714;28;20050;-67
2022/05/14 02:43:23;;;;;;;15.98;4.28;;;12.90;99.90;;;;;;5113896;28;20079;-67
2022/05/14 02:45:49;;;;;;;14.65;4.45;;;12.90;99.90;;;;;;5112804;28;20031;-67
2022/05/14 02:48:15;;;;;;;13.77;4.10;;;12.90;99.90;;;;;;5113817;28;20495;-67
2022/05/14 02:50:41;;;;;;;17.13;4.82;;;13.00;99.90;;;;;;5112301;28;20054;-67
2022/05/14 02:53:07;;;;;;;20.33;5.70;;;12.90;99.90;;;;;;5113722;28;20502;-66
2022/05/14 02:55:33;;;;;;;16.13;4.20;;;12.90;99.90;;;;;;5113580;28;20047;-67
2022/05/14 02:57:58;;;;;;;17.17;4.40;;;12.90;99.90;;;;;;5113618;28;20118;-67
2022/05/14 03:00:24;;;;;;;12.45;4.20;;;12.80;99.90;;;;;;5113169;28;20050;-67
2022/05/14 03:02:50;;;;;;;18.00;4.20;;;12.80;99.90;;;;;;5113055;28;20042;-67
2022/05/14 03:05:19;;;;;;;19.33;4.40;;;12.80;99.90;;;;;;5112950;28;20483;-67
2022/05/14 03:07:44;;;;;;;15.07;4.60;;;12.80;99.90;;;;;;5113337;28;20069;-67
2022/05/14 03:10:10;;;;;;;12.60;4.55;;;12.70;99.90;;;;;;5112247;28;20078;-67
2022/05/14 03:12:36;;;;;;;19.40;4.30;;;12.70;99.90;;;;;;5112715;28;20041;-67
2022/05/14 03:15:05;;;;;;;19.65;5.35;;;12.70;99.90;;;;;;5113262;28;20525;-67
2022/05/14 03:17:34;;;;;;;12.95;4.40;;;12.70;99.90;;;;;;5113234;28;20368;-67
2022/05/14 03:20:01;;;;;;;19.40;4.65;;;12.60;99.90;;;;;;5112704;28;20046;-67
2022/05/14 03:22:26;;;;;;;14.27;4.38;;;12.60;99.90;;;;;;5113073;28;20506;-67
2022/05/14 03:24:52;;;;;;;15.75;4.25;;;12.50;99.90;;;;;;5112936;28;20047;-68
2022/05/14 03:27:17;;;;;;;11.20;4.50;;;12.50;99.90;;;;;;5113065;28;20122;-67
2022/05/14 03:29:43;;;;;;;22.67;5.10;;;12.40;99.90;;;;;;5112604;28;20506;-68
2022/05/14 03:32:09;;;;;;;10.75;4.38;;;12.50;99.90;;;;;;5112517;28;20081;-68
2022/05/14 03:34:36;;;;;;;16.67;4.68;;;12.40;99.90;;;;;;5111404;28;20084;-67
2022/05/14 03:37:02;;;;;;;14.65;5.15;;;12.40;99.90;;;;;;5109226;28;20047;-67
2022/05/14 03:39:28;;;;;;;15.30;5.10;;;12.40;99.90;;;;;;5108177;28;20123;-67
2022/05/14 03:41:53;;;;;;;15.75;4.53;;;12.20;99.90;;;;;;5110478;28;20084;-67
2022/05/14 03:44:19;;;;;;;17.35;5.18;;;12.30;99.90;;;;;;5112432;28;20055;-67
2022/05/14 03:46:44;;;;;;;15.35;4.72;;;12.20;99.90;;;;;;5111637;28;20038;-69
2022/05/14 03:49:10;;;;;;;13.23;4.78;;;12.20;99.90;;;;;;5110478;28;20035;-67
2022/05/14 03:51:36;;;;;;;15.82;5.43;;;12.20;99.90;;;;;;5110819;28;20078;-67
2022/05/14 03:54:02;;;;;;;12.05;4.35;;;12.20;99.90;;;;;;5111509;28;20043;-66
2022/05/14 03:56:28;;;;;;;16.48;4.97;;;12.10;99.90;;;;;;5112561;28;20517;-67
2022/05/14 03:58:53;;;;;;;16.15;5.45;;;12.20;99.90;;;;;;5111019;28;20079;-67
2022/05/14 04:01:19;;;;;;;16.42;4.90;;;12.00;99.90;;;;;;5112039;28;20092;-68
2022/05/14 04:03:45;;;;;;;10.60;4.55;;;12.10;99.90;;;;;;5111176;28;20492;-68
2022/05/14 04:06:11;;;;;;;13.85;5.05;;;12.00;99.90;;;;;;5112200;28;20039;-66
2022/05/14 04:08:38;;;;;;;17.20;5.22;;;12.00;99.90;;;;;;5111216;28;20050;-68
2022/05/14 04:11:04;;;;;;;12.88;5.07;;;12.00;99.90;;;;;;5112363;28;20040;-67
2022/05/14 04:13:30;;;;;;;13.13;5.22;;;12.00;99.90;;;;;;5112261;28;20036;-68
2022/05/14 04:15:56;;;;;;;17.50;5.38;;;12.00;99.90;;;;;;5112090;28;20035;-67
2022/05/14 04:18:24;;;;;;;17.52;5.22;;;12.00;99.90;;;;;;5110627;28;20049;-68
2022/05/14 04:20:58;;;;;;;14.13;5.20;;;12.00;99.90;;;;;;5112044;28;20039;-67
2022/05/14 04:23:25;;;;;;;12.75;4.70;;;12.00;99.90;;;;;;5112060;28;20398;-67
2022/05/14 04:25:52;;;;;;;16.67;4.95;;;12.00;99.90;;;;;;5112135;28;20088;-67
2022/05/14 04:28:19;;;;;;;18.27;5.32;;;11.90;99.90;;;;;;5111737;28;20042;-67
2022/05/14 04:30:46;;;;;;;11.10;4.85;;;11.90;99.90;;;;;;5111668;28;20118;-67
2022/05/14 04:33:12;;;;;;;13.57;5.28;;;12.00;99.90;;;;;;5111704;28;20039;-67
2022/05/14 04:35:38;;;;;;;12.13;4.82;;;12.00;99.90;;;;;;5111666;28;20049;-67
2022/05/14 04:38:04;;;;;;;10.60;4.85;;;12.00;99.90;;;;;;5111630;28;20039;-68
2022/05/14 04:40:30;;;;;;;11.80;6.07;;;12.00;99.90;;;;;;5110702;28;20050;-68
2022/05/14 04:42:56;;;;;;;10.48;5.63;;;12.00;99.90;;;;;;5110659;28;20039;-67
2022/05/14 04:45:21;;;;;;;18.50;5.30;;;12.00;99.90;;;;;;5111720;28;20047;-66
2022/05/14 04:47:47;;;;;;;15.85;5.40;;;12.10;99.90;;;;;;5111408;28;20047;-67
2022/05/14 04:50:13;;;;;;;14.63;5.25;;;12.20;99.90;;;;;;5109910;28;20040;-67
2022/05/14 04:52:39;;;;;;;20.58;5.68;;;12.20;99.90;;;;;;5111527;28;20039;-67
2022/05/14 04:55:07;;;;;;;15.43;5.47;;;12.30;99.90;;;;;;5111342;28;20053;-67
2022/05/14 04:57:33;;;;;;;17.63;6.40;;;12.30;99.90;;;;;;5111315;28;20043;-68
2022/05/14 04:59:58;;;;;;;14.95;6.18;;;12.40;99.90;;;;;;5109671;28;20043;-68
2022/05/14 05:05:10;;;;;;;14.02;6.35;;;12.60;99.90;;;;;;5110805;28;20122;-67
2022/05/14 05:07:35;;;;;;;16.60;6.05;;;12.60;99.90;;;;;;5111164;28;20039;-67
2022/05/14 05:10:01;;;;;;;16.58;5.97;;;12.70;99.90;;;;;;5106237;28;20040;-67
2022/05/14 05:12:27;;;;;;;20.92;6.00;;;12.70;99.90;;;;;;5080854;28;20032;-68
2022/05/14 05:14:52;;;;;;;15.55;6.25;;;12.90;99.90;;;;;;5077146;28;20496;-67
2022/05/14 05:17:18;;;;;;;13.48;6.07;;;13.00;99.90;;;;;;5080717;28;20040;-68
2022/05/14 05:19:43;;;;;;;15.13;5.65;;;12.90;99.90;;;;;;5078974;28;20504;-67
2022/05/14 05:22:09;;;;;;;14.00;5.68;;;13.00;99.90;;;;;;5079635;28;20059;-68
2022/05/14 05:24:35;;;;;;;17.42;6.20;;;13.10;99.90;;;;;;5077978;28;20032;-68
2022/05/14 05:27:00;;;;;;;18.52;6.53;;;13.20;99.90;;;;;;5078993;28;20041;-68
2022/05/14 05:29:26;;;;;;;13.50;6.63;;;13.30;99.90;;;;;;5077919;28;20068;-68
2022/05/14 05:31:51;;;;;;;20.60;6.65;;;13.40;99.90;;;;;;5080644;28;20032;-67
2022/05/14 05:34:17;;;;;;;21.83;6.07;;;13.40;99.90;;;;;;5079031;28;20060;-68
2022/05/14 05:36:43;;;;;;;16.15;7.13;;;13.60;99.90;;;;;;5079378;28;20765;-68
2022/05/14 05:39:10;;;;;;;20.23;6.28;;;13.60;99.90;;;;;;5075797;28;20044;-67
2022/05/14 05:41:36;;;;;;;18.50;7.13;;;13.60;99.90;;;;;;5079727;28;20042;-67
2022/05/14 05:44:02;;;;;;;18.58;7.07;;;13.70;99.90;;;;;;5076197;28;20503;-68
2022/05/14 05:46:27;;;;;;;19.80;6.82;;;13.80;99.90;;;;;;5081525;28;20040;-70
2022/05/14 05:48:53;;;;;;;18.45;6.53;;;13.70;99.90;;;;;;5081665;28;20044;-67
2022/05/14 05:51:18;;;;;;;13.27;6.43;;;13.80;99.90;;;;;;5080244;28;20035;-68
2022/05/14 05:56:46;;;;;;;20.98;6.53;;;14.10;99.90;;;;;;5079963;28;20048;-68
2022/05/14 05:59:14;;;;;;;20.38;7.07;;;14.30;99.90;;;;;;5090017;28;20047;-68
2022/05/14 06:01:40;;;;;;;21.70;7.10;;;14.40;99.90;;;;;;5091636;28;20672;-67
2022/05/14 06:04:06;;;;;;;28.55;7.70;;;14.50;99.90;;;;;;5090777;28;20040;-67
2022/05/14 06:06:31;;;;;;;21.50;7.68;;;14.50;99.90;;;;;;5090624;28;20555;-67
2022/05/14 06:08:58;;;;;;;25.80;7.53;;;14.70;99.90;;;;;;5090167;28;20044;-67
2022/05/14 06:11:25;;;;;;;25.75;8.07;;;14.70;99.90;;;;;;5090355;28;20040;-67
2022/05/14 06:13:51;;;;;;;18.55;7.20;;;14.90;99.90;;;;;;5090345;28;20036;-68
2022/05/14 06:16:16;;;;;;;20.67;7.80;;;15.00;99.90;;;;;;5091654;28;20044;-68
2022/05/14 06:18:42;;;;;;;21.80;7.18;;;15.10;99.90;;;;;;5092758;28;20091;-67
2022/05/14 06:21:08;;;;;;;21.60;7.03;;;15.20;99.90;;;;;;5089244;28;20044;-67
2022/05/14 06:23:34;;;;;;;25.63;8.02;;;15.40;99.90;;;;;;5090611;28;20054;-67
2022/05/14 06:26:00;;;;;;;27.20;8.07;;;15.50;99.90;;;;;;5093727;28;20544;-67
2022/05/14 06:28:26;;;;;;;20.42;7.43;;;15.60;99.90;;;;;;5093710;28;20040;-68
2022/05/14 06:30:51;;;;;;;21.05;7.07;;;15.60;99.90;;;;;;5093799;28;20115;-67
2022/05/14 06:33:18;;;;;;;27.55;8.15;;;15.80;99.90;;;;;;5093940;28;20697;-68
2022/05/14 06:35:45;;;;;;;26.00;7.20;;;15.70;99.90;;;;;;5093803;28;20044;-67
2022/05/14 06:38:11;;;;;;;21.92;7.03;;;15.60;99.90;;;;;;5093706;28;20043;-67
2022/05/14 06:40:37;;;;;;;26.52;7.18;;;15.60;99.90;;;;;;5093258;28;20086;-67
2022/05/14 06:43:03;;;;;;;24.73;8.13;;;15.60;99.90;;;;;;5092729;28;20093;-68
2022/05/14 06:45:29;;;;;;;16.50;7.32;;;15.70;99.90;;;;;;5093379;28;20040;-68
2022/05/14 06:47:54;;;;;;;19.23;6.72;;;15.70;99.90;;;;;;5093509;28;20055;-72
2022/05/14 06:50:21;;;;;;;22.98;6.93;;;15.60;99.90;;;;;;5091072;28;20408;-71
2022/05/14 06:52:49;;;;;;;24.35;6.95;;;15.60;99.90;;;;;;5092570;28;20039;-72
2022/05/14 06:55:19;;;;;;;27.10;7.47;;;15.40;99.90;;;;;;5093198;28;20044;-71
2022/05/14 06:57:46;;;;;;;24.73;7.35;;;15.50;99.90;;;;;;5093507;28;20036;-72
2022/05/14 07:00:12;;;;;;;25.90;7.80;;;15.60;99.90;;;;;;5091897;28;20089;-72
2022/05/14 07:02:38;;;;;;;26.35;7.72;;;15.70;99.90;;;;;;5092043;28;20044;-67
2022/05/14 07:07:48;;;;;;;23.15;7.32;;;15.90;99.90;;;;;;5094385;28;20044;-69
2022/05/14 07:10:14;;;;;;;26.40;6.97;;;16.00;99.90;;;;;;5093925;28;20515;-68
2022/05/14 07:12:40;;;;;;;20.38;6.75;;;16.00;99.90;;;;;;5094471;28;20582;-68
2022/05/14 07:15:07;;;;;;;20.23;7.63;;;16.20;99.90;;;;;;5093852;28;20087;-68
2022/05/14 07:17:33;;;;;;;23.08;7.25;;;16.30;99.90;;;;;;5092813;28;20036;-68
2022/05/14 07:19:59;;;;;;;26.98;7.25;;;16.40;99.90;;;;;;5092427;28;20040;-67
2022/05/14 07:22:24;;;;;;;28.23;7.82;;;16.50;99.90;;;;;;5092738;28;20123;-68
2022/05/14 07:24:50;;;;;;;22.02;6.63;;;16.60;99.90;;;;;;5091413;28;20512;-67
2022/05/14 07:27:16;;;;;;;23.33;6.78;;;16.50;99.90;;;;;;5088198;28;20563;-69
2022/05/14 07:29:44;;;;;;;18.38;7.55;;;16.70;99.90;;;;;;5091788;28;20032;-68
2022/05/14 07:32:16;;;;;;;26.67;7.18;;;16.80;99.90;;;;;;5083435;28;20082;-67
2022/05/14 07:34:43;;;;;;;20.13;6.80;;;16.90;99.90;;;;;;5082185;28;20074;-68
2022/05/14 07:37:12;;;;;;;18.40;6.10;;;17.10;99.90;;;;;;5080304;28;20043;-68
2022/05/14 07:39:53;;;;;;;18.58;6.28;;;17.10;99.90;;;;;;5070351;28;20489;-70
2022/05/14 07:42:27;;;;;;;20.60;5.85;;;17.20;99.90;;;;;;5070925;28;20044;-69
2022/05/14 07:44:55;;;;;;;19.85;5.32;;;17.30;99.90;;;;;;5071999;28;20067;-69
2022/05/14 07:47:21;;;;;;;26.38;5.90;;;17.40;99.90;;;;;;5071730;28;20469;-68
2022/05/14 07:49:49;;;;;;;23.80;6.20;;;17.40;99.90;;;;;;5071056;28;20044;-67
2022/05/14 07:52:15;;;;;;;18.77;5.22;;;17.50;99.90;;;;;;5070380;28;20048;-67
2022/05/14 07:54:41;;;;;;;21.00;5.90;;;17.60;99.90;;;;;;5072812;28;20089;-68
2022/05/14 07:57:07;;;;;;;23.08;5.70;;;17.50;99.90;;;;;;5077214;28;20489;-66
2022/05/14 07:59:36;;;;;;;19.38;5.05;;;17.60;99.90;;;;;;5078089;28;20516;-65
2022/05/14 08:02:05;;;;;;;23.77;5.70;;;17.70;99.90;;;;;;5081344;28;20047;-66
2022/05/14 08:04:31;;;;;;;20.60;5.35;;;17.70;99.90;;;;;;5080849;28;20040;-65
2022/05/14 08:06:57;;;;;;;28.40;5.88;;;17.80;99.90;;;;;;5077060;28;20049;-65
2022/05/14 08:09:22;;;;;;;22.73;5.78;;;17.80;99.90;;;;;;5077771;28;20048;-65
2022/05/14 08:11:48;;;;;;;18.30;6.28;;;17.80;99.90;;;;;;5078367;28;20045;-65
2022/05/14 08:14:14;;;;;;;22.75;5.95;;;17.90;99.90;;;;;;5081342;28;20039;-66
2022/05/14 08:16:40;;;;;;;33.35;6.15;;;18.00;99.90;;;;;;5082413;28;20408;-67
2022/05/14 08:19:05;;;;;;;17.33;5.93;;;18.00;99.90;;;;;;5080882;28;20036;-68
2022/05/14 08:24:30;;;;;;;21.10;6.93;;;18.10;99.90;;;;;;5084780;28;20048;-66
2022/05/14 08:27:00;;;;;;;25.55;5.82;;;18.30;99.90;;;;;;5090522;28;20046;-67
2022/05/14 08:29:26;;;;;;;22.38;5.93;;;18.30;99.90;;;;;;5091225;28;20036;-68
2022/05/14 08:31:51;;;;;;;29.17;6.72;;;18.40;99.90;;;;;;5091354;28;20062;-68
2022/05/14 08:34:18;;;;;;;16.23;4.78;;;18.40;99.90;;;;;;5091608;28;20043;-68
2022/05/14 08:36:44;;;;;;;30.13;5.97;;;18.40;99.90;;;;;;5090074;28;20582;-69
2022/05/14 08:39:11;;;;;;;26.08;5.20;;;18.50;99.90;;;;;;5089848;28;20036;-69
2022/05/14 08:41:40;;;;;;;19.50;5.38;;;18.50;99.90;;;;;;5089368;28;20039;-67
2022/05/14 08:44:10;;;;;;;25.00;5.20;;;18.40;99.90;;;;;;5089776;28;20119;-68
2022/05/14 08:46:40;;;;;;;22.98;4.93;;;18.50;99.90;;;;;;5090893;28;20119;-69
2022/05/14 08:49:19;;;;;;;27.02;5.78;;;18.50;99.90;;;;;;5089494;28;20047;-69
2022/05/14 08:51:50;;;;;;;20.50;5.40;;;18.60;99.90;;;;;;5090991;28;20042;-69
2022/05/14 08:54:17;;;;;;;24.33;5.55;;;18.70;99.90;;;;;;5090420;28;20128;-70
2022/05/14 08:57:13;;;;;;;25.10;4.97;;;18.80;99.90;;;;;;5090469;28;20055;-70
2022/05/14 08:59:53;;;;;;;17.30;4.50;;;18.70;99.90;;;;;;5090287;28;20044;-70
2022/05/14 09:02:24;;;;;;;18.20;4.63;;;18.70;99.90;;;;;;5088635;28;20048;-70
2022/05/14 09:04:56;;;;;;;28.38;4.85;;;18.70;99.90;;;;;;5091050;28;20032;-69
2022/05/14 09:07:21;;;;;;;19.17;4.55;;;18.80;99.90;;;;;;5091246;28;20044;-69
2022/05/14 09:09:50;;;;;;;18.70;4.45;;;18.90;99.90;;;;;;5088994;28;20028;-69
2022/05/14 09:12:18;;;;;;;16.75;4.40;;;19.00;99.90;;;;;;5088403;28;20051;-69
2022/05/14 09:14:44;;;;;;;19.10;4.20;;;19.10;99.90;;;;;;5090646;28;20036;-68
2022/05/14 09:17:22;;;;;;;23.55;5.70;;;19.30;99.90;;;;;;5090995;28;20056;-69
2022/05/14 09:19:51;;;;;;;17.55;4.60;;;19.20;99.90;;;;;;5090345;28;20528;-68
2022/05/14 09:22:23;;;;;;;27.00;4.50;;;19.40;99.90;;;;;;5089648;28;20079;-68
2022/05/14 09:25:15;;;;;;;18.23;4.13;;;19.30;99.90;;;;;;5089830;28;20036;-67
2022/05/14 09:27:44;;;;;;;16.27;4.43;;;19.30;99.90;;;;;;5089392;28;20420;-67
2022/05/14 09:30:23;;;;;;;16.17;4.38;;;19.30;99.90;;;;;;5089568;28;20274;-67
2022/05/14 09:32:49;;;;;;;24.13;4.78;;;19.40;99.90;;;;;;5090811;28;20067;-68
2022/05/14 09:35:27;;;;;;;18.30;4.35;;;19.50;99.90;;;;;;5090864;28;20060;-67
2022/05/14 09:38:11;;;;;;;15.48;3.92;;;19.70;99.90;;;;;;5090644;28;20042;-65
2022/05/14 09:40:37;;;;;;;21.80;4.35;;;19.70;99.90;;;;;;5088357;28;20032;-67
2022/05/14 09:43:14;;;;;;;19.77;4.88;;;19.70;99.90;;;;;;5090479;28;20052;-68
2022/05/14 09:45:56;;;;;;;27.13;4.10;;;19.70;99.90;;;;;;5090680;28;20040;-71
2022/05/14 09:48:29;;;;;;;17.98;4.78;;;19.70;99.90;;;;;;5090563;28;20071;-68
2022/05/14 09:51:01;;;;;;;23.65;4.30;;;19.80;99.90;;;;;;5091510;28;20054;-69
2022/05/14 09:53:37;;;;;;;17.85;4.60;;;19.70;99.90;;;;;;5092705;28;20056;-69
2022/05/14 09:56:30;;;;;;;14.85;3.75;;;19.80;99.90;;;;;;5094379;28;20074;-70
2022/05/14 09:59:39;;;;;;;20.80;3.65;;;19.80;99.90;;;;;;5093900;28;20047;-70
2022/05/14 10:02:28;;;;;;;25.63;4.13;;;19.90;99.80;;;;;;5055150;28;20125;-69
2022/05/14 10:05:11;;;;;;;16.88;4.35;;;19.70;99.90;;;;;;5093163;28;20051;-71
2022/05/14 10:08:04;;;;;;;22.05;4.82;;;19.70;99.90;;;;;;5094299;28;20044;-68
2022/05/14 10:10:53;;;;;;;19.15;4.05;;;19.70;99.90;;;;;;5093931;28;20082;-68
2022/05/14 10:13:39;;;;;;;22.63;4.63;;;19.60;99.90;;;;;;5093024;28;20040;-67
2022/05/14 10:16:25;;;;;;;20.00;5.00;;;19.70;99.90;;;;;;5090392;28;20090;-67
2022/05/14 10:19:16;;;;;;;14.20;3.97;;;19.80;99.90;;;;;;5090341;28;20097;-67
2022/05/14 10:21:53;;;;;;;17.02;4.03;;;19.90;99.90;;;;;;5093239;28;20046;-67
2022/05/14 10:28:04;;;;;;;23.20;4.97;;;19.90;99.90;;;;;;5092862;28;20052;-67
2022/05/14 10:31:06;;;;;;;21.45;4.38;;;19.90;99.90;;;;;;5092734;28;20074;-67
2022/05/14 10:33:32;;;;;;;23.67;4.97;;;19.80;99.90;;;;;;5093709;28;20240;-68
2022/05/14 10:36:19;;;;;;;20.05;3.97;;;19.70;99.90;;;;;;5074248;28;20143;-67
2022/05/14 10:38:53;;;;;;;16.20;3.70;;;19.80;99.90;;;;;;5093347;28;20119;-68
2022/05/14 10:41:43;;;;;;;24.13;4.38;;;19.80;99.90;;;;;;5092777;28;20044;-68
2022/05/14 10:44:15;;;;;;;19.50;3.95;;;19.70;99.90;;;;;;5093299;28;20036;-68
2022/05/14 10:46:43;;;;;;;19.90;4.20;;;19.40;99.40;;;;;;5093140;28;20040;-67
2022/05/14 10:49:17;;;;;;;31.77;4.45;;;19.20;99.90;;;;;;5092805;28;20457;-66
2022/05/14 10:51:46;;;;;;;21.75;5.30;;;19.10;99.90;;;;;;5092700;28;20102;-67
2022/05/14 10:54:15;;;;;;;19.20;4.47;;;19.30;99.90;;;;;;5092874;28;20046;-67
2022/05/14 10:56:53;;;;;;;18.75;4.75;;;19.50;99.90;;;;;;5092768;28;20036;-67
2022/05/14 10:59:48;;;;;;;21.98;4.60;;;19.60;99.90;;;;;;5092341;28;20078;-67
2022/05/14 11:02:24;;;;;;;23.48;4.60;;;19.70;99.90;;;;;;5092037;28;20088;-67
2022/05/14 11:04:51;;;;;;;31.83;4.72;;;20.00;99.90;;;;;;5093263;28;20036;-67
2022/05/14 11:07:37;;;;;;;17.70;4.65;;;20.10;99.90;;;;;;5093123;28;20496;-68
2022/05/14 11:10:30;;;;;;;19.50;4.20;;;20.30;99.90;;;;;;5092782;28;20044;-67
2022/05/14 11:13:19;;;;;;;17.30;4.03;;;20.60;99.10;;;;;;5092519;28;20040;-67
2022/05/14 11:15:44;;;;;;;19.35;4.00;;;20.50;98.70;;;;;;5091967;28;20442;-67
2022/05/14 11:18:14;;;;;;;24.52;4.30;;;20.60;98.90;;;;;;5092508;28;20089;-69
2022/05/14 11:20:56;;;;;;;18.58;4.22;;;20.50;97.70;;;;;;5091734;28;20119;-69
2022/05/14 11:23:23;;;;;;;22.30;4.72;;;20.50;98.30;;;;;;5090902;28;20036;-69
2022/05/14 11:26:06;;;;;;;21.35;4.22;;;20.70;95.80;;;;;;5092540;28;20040;-69
2022/05/14 11:28:32;;;;;;;17.65;3.80;;;20.50;92.40;;;;;;5092533;28;20032;-69
2022/05/14 11:31:16;;;;;;;18.63;3.90;;;20.60;94.60;;;;;;5092473;28;20047;-69
2022/05/14 11:33:43;;;;;;;19.65;4.47;;;20.60;94.40;;;;;;5092781;28;20374;-70
2022/05/14 11:36:11;;;;;;;17.63;5.40;;;20.70;94.20;;;;;;5092492;28;20093;-70
2022/05/14 11:38:39;;;;;;;18.95;3.90;;;20.70;94.30;;;;;;5092155;28;20044;-69
2022/05/14 11:41:09;;;;;;;21.33;4.47;;;20.80;94.50;;;;;;5092459;28;20057;-71
2022/05/14 11:43:44;;;;;;;18.08;3.83;;;21.00;95.30;;;;;;5092626;28;20044;-69
2022/05/14 11:46:30;;;;;;;18.25;4.05;;;20.90;92.60;;;;;;5092372;28;20040;-70
2022/05/14 11:49:28;;;;;;;21.58;4.93;;;20.90;94.40;;;;;;5091651;28;20036;-69
2022/05/14 11:52:00;;;;;;;16.08;3.90;;;20.70;90.90;;;;;;5092035;28;20036;-70
2022/05/14 11:54:42;;;;;;;18.05;3.95;;;20.60;91.40;;;;;;5092198;28;20119;-70
2022/05/14 11:57:31;;;;;;;20.13;4.35;;;20.70;91.50;;;;;;5092028;28;20040;-70
2022/05/14 12:00:03;;;;;;;12.57;3.88;;;20.90;91.90;;;;;;5091913;28;20039;-69
2022/05/14 12:02:37;;;;;;;18.35;3.83;;;21.00;91.40;;;;;;5092111;28;20048;-70
2022/05/14 12:05:07;;;;;;;19.27;4.80;;;21.00;92.50;;;;;;5091544;28;20048;-72
2022/05/14 12:07:53;;;;;;;19.67;4.20;;;21.30;92.10;;;;;;5091639;28;20566;-71
2022/05/14 12:10:49;;;;;;;19.15;4.00;;;21.20;89.20;;;;;;5090413;28;20054;-69
2022/05/14 12:13:35;;;;;;;19.95;4.45;;;21.20;91.30;;;;;;5090336;28;20048;-70
2022/05/14 12:16:01;;;;;;;19.13;4.22;;;21.30;90.80;;;;;;5091679;28;20093;-71
2022/05/14 12:18:28;;;;;;;20.85;4.60;;;21.40;92.40;;;;;;5090764;28;20044;-70
2022/05/14 12:21:00;;;;;;;24.25;4.47;;;21.30;90.50;;;;;;5090224;28;20411;-68
2022/05/14 12:23:31;;;;;;;;;;;21.30;90.60;;;;;;5090673;28;20488;-67
2022/05/14 12:25:57;;;;;;;28.98;4.28;;;21.10;87.60;;;;;;5091386;28;19924;-68
2022/05/14 12:28:29;;;;;;;20.88;4.05;;;21.10;91.00;;;;;;5091656;28;20042;-70
2022/05/14 12:34:04;;;;;;;24.30;4.38;;;21.10;86.00;;;;;;5067116;28;19938;-69
2022/05/14 12:36:36;;;;;;;14.10;3.90;;;21.20;86.50;;;;;;5090940;28;20127;-70
2022/05/14 12:39:09;;;;;;;17.58;3.97;;;21.00;89.10;;;;;;5091282;28;20039;-70
2022/05/14 12:41:41;;;;;;;21.33;4.75;;;20.80;86.10;;;;;;5091512;28;20040;-70
2022/05/14 12:44:12;;;;;;;19.33;5.05;;;20.80;89.90;;;;;;5091480;28;20047;-70
2022/05/14 12:46:42;;;;;;;20.85;3.75;;;20.80;85.80;;;;;;5090421;28;20076;-70
2022/05/14 12:49:16;;;;;;;18.05;3.70;;;20.80;90.40;;;;;;5090936;28;20545;-71
2022/05/14 12:51:51;;;;;;;19.88;4.13;;;21.00;89.90;;;;;;5091396;28;20028;-71
2022/05/14 12:54:28;;;;;;;19.20;4.22;;;21.10;87.30;;;;;;5091114;28;20583;-70
2022/05/14 12:56:56;;;;;;;23.80;4.28;;;21.20;84.40;;;;;;5090178;28;20526;-73
2022/05/14 12:59:22;;;;;;;19.17;3.85;;;21.20;83.20;;;;;;5089955;28;20075;-70
2022/05/14 13:01:51;;;;;;;13.73;3.67;;;21.50;83.60;;;;;;5089276;28;20040;-70
2022/05/14 13:04:20;;;;;;;19.80;4.10;;;21.40;83.20;;;;;;5089778;28;20036;-70
2022/05/14 13:06:46;;;;;;;19.55;4.07;;;21.70;83.00;;;;;;5091160;28;20044;-70
2022/05/14 13:09:19;;;;;;;13.88;3.63;;;21.80;79.00;;;;;;5090790;28;20043;-70
2022/05/14 13:11:49;;;;;;;18.08;3.35;;;21.40;76.30;;;;;;5090481;28;20032;-70
2022/05/14 13:14:27;;;;;;;17.15;4.20;;;21.50;84.40;;;;;;5091130;28;20036;-70